createdAt,value
2023-02-23T00:02:06.378Z,8.20
2023-02-23T00:04:36.932Z,8.60
2023-02-23T00:07:07.170Z,7.80
2023-02-23T00:09:37.580Z,7.60
2023-02-23T00:12:10.826Z,8.60
2023-02-23T00:14:40.742Z,8.50
2023-02-23T00:17:15.401Z,8.80
2023-02-23T00:19:58.869Z,7.40
2023-02-23T00:22:28.694Z,7.90
2023-02-23T00:25:00.151Z,7.60
2023-02-23T00:27:30.210Z,8.50
2023-02-23T00:30:00.762Z,7.70
2023-02-23T00:32:31.424Z,9.80
2023-02-23T00:35:01.405Z,9.70
2023-02-23T00:37:31.616Z,9.70
2023-02-23T00:40:01.410Z,9.70
2023-02-23T00:42:33.340Z,8.80
2023-02-23T00:45:13.196Z,9.70
2023-02-23T00:47:45.747Z,8.80
2023-02-23T00:50:18.665Z,9.40
2023-02-23T00:52:49.377Z,7.10
2023-02-23T00:55:20.135Z,7.10
2023-02-23T00:57:51.180Z,8.00
2023-02-23T01:00:22.451Z,7.80
2023-02-23T01:02:57.796Z,6.30
2023-02-23T01:05:28.220Z,6.40
2023-02-23T01:07:57.635Z,7.20
2023-02-23T01:10:27.883Z,7.40
2023-02-23T01:12:58.745Z,7.50
2023-02-23T01:15:29.487Z,6.30
2023-02-23T01:17:59.299Z,6.80
2023-02-23T01:20:29.288Z,6.90
2023-02-23T01:22:58.779Z,7.20
2023-02-23T01:25:29.880Z,6.80
2023-02-23T01:28:02.162Z,7.00
2023-02-23T01:30:32.823Z,7.20
2023-02-23T01:33:03.168Z,7.60
2023-02-23T01:35:33.785Z,7.80
2023-02-23T01:38:05.229Z,7.40
2023-02-23T01:40:37.727Z,6.80
2023-02-23T01:45:46.520Z,6.30
2023-02-23T01:48:21.320Z,7.80
2023-02-23T01:50:55.077Z,8.30
2023-02-23T01:53:28.718Z,8.70
2023-02-23T01:56:01.859Z,8.60
2023-02-23T01:58:34.197Z,8.00
2023-02-23T02:01:06.004Z,7.30
2023-02-23T02:03:53.709Z,7.60
2023-02-23T02:06:29.424Z,7.20
2023-02-23T02:09:07.020Z,7.30
2023-02-23T02:11:37.888Z,8.00
2023-02-23T02:14:13.599Z,7.20
2023-02-23T02:16:53.376Z,7.00
2023-02-23T02:19:40.828Z,8.00
2023-02-23T02:22:33.250Z,7.70
2023-02-23T02:25:43.464Z,7.50
2023-02-23T02:28:35.030Z,7.50
2023-02-23T02:31:24.494Z,7.60
2023-02-23T02:33:54.507Z,7.10
2023-02-23T02:36:43.108Z,6.70
2023-02-23T02:39:54.260Z,6.50
2023-02-23T02:42:46.129Z,6.60
2023-02-23T02:45:38.927Z,6.70
2023-02-23T02:48:26.233Z,6.70
2023-02-23T02:51:20.513Z,7.30
2023-02-23T02:54:25.706Z,6.60
2023-02-23T02:57:00.899Z,6.90
2023-02-23T02:59:50.795Z,6.40
2023-02-23T03:02:41.937Z,5.60
2023-02-23T03:05:36.686Z,6.40
2023-02-23T03:09:07.603Z,6.40
2023-02-23T03:12:03.423Z,6.00
2023-02-23T03:15:09.003Z,5.10
2023-02-23T03:18:08.793Z,5.50
2023-02-23T03:21:10.212Z,4.70
2023-02-23T03:24:23.983Z,5.00
2023-02-23T03:27:36.520Z,4.70
2023-02-23T03:30:43.043Z,4.90
2023-02-23T03:33:38.905Z,4.30
2023-02-23T03:36:40.635Z,4.20
2023-02-23T03:39:46.743Z,4.60
2023-02-23T03:42:40.265Z,5.00
2023-02-23T03:45:40.068Z,4.90
2023-02-23T03:48:31.729Z,4.70
2023-02-23T03:51:26.036Z,6.60
2023-02-23T03:54:17.893Z,6.90
2023-02-23T03:57:11.744Z,7.30
2023-02-23T04:00:06.796Z,10.60
2023-02-23T04:03:07.257Z,9.10
2023-02-23T04:05:59.476Z,9.10
2023-02-23T04:11:57.660Z,8.80
2023-02-23T04:14:54.713Z,10.80
2023-02-23T04:17:29.756Z,13.60
2023-02-23T04:19:59.378Z,11.50
2023-02-23T04:22:29.802Z,12.10
2023-02-23T04:25:00.360Z,10.10
2023-02-23T04:27:31.631Z,8.10
2023-02-23T04:30:00.850Z,7.90
2023-02-23T04:32:32.203Z,6.90
2023-02-23T04:35:04.877Z,7.70
2023-02-23T04:37:37.464Z,7.90
2023-02-23T04:40:09.258Z,8.30
2023-02-23T04:42:41.550Z,7.30
2023-02-23T04:45:11.613Z,8.00
2023-02-23T04:47:41.888Z,6.10
2023-02-23T04:50:12.796Z,7.20
2023-02-23T04:52:43.814Z,7.10
2023-02-23T04:55:19.663Z,7.50
2023-02-23T04:57:51.289Z,6.40
2023-02-23T05:00:21.903Z,8.20
2023-02-23T05:02:52.356Z,6.00
2023-02-23T05:05:22.538Z,9.30
2023-02-23T05:07:55.657Z,12.70
2023-02-23T05:10:25.292Z,9.10
2023-02-23T05:12:55.868Z,9.70
2023-02-23T05:15:25.658Z,7.30
2023-02-23T05:17:56.395Z,5.30
2023-02-23T05:20:26.426Z,6.70
2023-02-23T05:22:59.788Z,5.90
2023-02-23T05:25:30.302Z,6.00
2023-02-23T05:28:04.159Z,6.30
2023-02-23T05:30:43.164Z,6.70
2023-02-23T05:33:16.671Z,6.90
2023-02-23T05:35:47.507Z,7.60
2023-02-23T05:38:18.237Z,7.50
2023-02-23T05:40:51.886Z,6.10
2023-02-23T05:43:21.644Z,6.20
2023-02-23T05:45:51.653Z,5.40
2023-02-23T05:48:21.723Z,6.90
2023-02-23T05:50:52.870Z,8.10
2023-02-23T05:53:31.270Z,9.50
2023-02-23T05:56:14.611Z,10.60
2023-02-23T05:58:43.683Z,12.00
2023-02-23T06:01:14.644Z,10.80
2023-02-23T06:03:46.477Z,10.70
2023-02-23T06:08:50.293Z,10.60
2023-02-23T06:11:21.068Z,10.50
2023-02-23T06:13:51.193Z,9.90
2023-02-23T06:16:21.453Z,9.60
2023-02-23T06:19:03.589Z,8.90
2023-02-23T06:22:00.225Z,9.90
2023-02-23T06:24:32.031Z,8.60
2023-02-23T06:27:05.964Z,9.40
2023-02-23T06:29:35.512Z,10.70
2023-02-23T06:32:08.118Z,10.80
2023-02-23T06:34:38.795Z,10.30
2023-02-23T06:37:12.656Z,10.60
2023-02-23T06:39:42.475Z,12.00
2023-02-23T06:42:16.065Z,14.00
2023-02-23T06:44:46.308Z,16.80
2023-02-23T06:47:15.553Z,16.00
2023-02-23T06:49:45.989Z,16.50
2023-02-23T06:52:16.554Z,14.40
2023-02-23T06:54:48.839Z,14.80
2023-02-23T06:57:21.915Z,14.30
2023-02-23T06:59:53.727Z,13.50
2023-02-23T07:02:23.126Z,14.00
2023-02-23T07:04:55.216Z,13.70
2023-02-23T07:07:25.495Z,13.10
2023-02-23T07:09:55.513Z,12.40
2023-02-23T07:12:24.694Z,15.60
2023-02-23T07:14:54.900Z,15.20
2023-02-23T07:17:24.993Z,17.30
2023-02-23T07:19:55.990Z,19.80
2023-02-23T07:22:30.653Z,21.20
2023-02-23T07:25:00.318Z,19.40
2023-02-23T07:27:32.687Z,20.20
2023-02-23T07:30:05.905Z,20.20
2023-02-23T07:32:35.746Z,19.80
2023-02-23T07:35:08.489Z,18.10
2023-02-23T07:37:43.684Z,18.00
2023-02-23T07:40:17.036Z,16.00
2023-02-23T07:42:49.464Z,17.10
2023-02-23T07:45:19.473Z,16.60
2023-02-23T07:47:53.066Z,17.60
2023-02-23T07:50:26.771Z,16.40
2023-02-23T07:53:00.534Z,16.90
2023-02-23T07:55:31.316Z,16.50
2023-02-23T07:58:00.564Z,15.30
2023-02-23T08:00:37.410Z,16.10
2023-02-23T08:03:07.992Z,14.20
2023-02-23T08:05:40.538Z,14.20
2023-02-23T08:08:11.694Z,13.30
2023-02-23T08:10:41.951Z,14.50
2023-02-23T08:13:13.552Z,13.90
2023-02-23T08:15:44.716Z,14.90
2023-02-23T08:18:14.311Z,12.70
2023-02-23T08:20:43.520Z,13.40
2023-02-23T08:23:13.572Z,13.00
2023-02-23T08:25:45.016Z,13.60
2023-02-23T08:28:16.689Z,13.50
2023-02-23T08:30:50.491Z,14.10
2023-02-23T08:33:32.753Z,13.70
2023-02-23T08:36:03.638Z,14.10
2023-02-23T08:38:33.233Z,14.10
2023-02-23T08:41:07.867Z,13.40
2023-02-23T08:43:39.912Z,13.00
2023-02-23T08:46:11.708Z,12.50
2023-02-23T08:48:41.413Z,13.80
2023-02-23T08:51:11.480Z,14.20
2023-02-23T08:53:41.973Z,13.60
2023-02-23T08:56:13.786Z,12.70
2023-02-23T09:01:24.465Z,13.90
2023-02-23T09:04:00.851Z,13.70
2023-02-23T09:06:36.086Z,12.20
2023-02-23T09:09:06.294Z,12.00
2023-02-23T09:11:40.859Z,14.50
2023-02-23T09:14:11.085Z,13.50
2023-02-23T09:16:49.706Z,14.70
2023-02-23T09:19:23.014Z,13.90
2023-02-23T09:21:53.750Z,15.20
2023-02-23T09:24:27.781Z,15.00
2023-02-23T09:26:59.956Z,14.30
2023-02-23T09:29:44.353Z,15.60
2023-02-23T09:32:13.913Z,14.60
2023-02-23T09:35:04.516Z,14.30
2023-02-23T09:37:35.252Z,12.30
2023-02-23T09:40:14.318Z,12.70
2023-02-23T09:43:10.779Z,12.80
2023-02-23T09:45:58.342Z,12.90
2023-02-23T09:48:31.252Z,14.30
2023-02-23T09:51:17.150Z,12.30
2023-02-23T09:54:06.335Z,10.90
2023-02-23T09:56:56.760Z,9.00
2023-02-23T09:59:32.745Z,9.80
2023-02-23T10:02:31.531Z,9.40
2023-02-23T10:05:18.911Z,9.30
2023-02-23T10:08:21.868Z,9.10
2023-02-23T10:11:47.127Z,10.60
2023-02-23T10:14:55.922Z,9.00
2023-02-23T10:17:43.741Z,10.70
2023-02-23T10:20:28.556Z,8.90
2023-02-23T10:23:27.055Z,10.50
2023-02-23T10:26:02.712Z,9.50
2023-02-23T10:28:47.739Z,8.60
2023-02-23T10:31:43.849Z,9.10
2023-02-23T10:34:32.458Z,9.40
2023-02-23T10:37:18.288Z,9.50
2023-02-23T10:39:57.049Z,8.60
2023-02-23T10:42:36.458Z,7.80
2023-02-23T10:45:24.887Z,7.80
2023-02-23T10:47:59.745Z,6.20
2023-02-23T10:50:34.137Z,5.80
2023-02-23T10:53:27.777Z,6.10
2023-02-23T10:56:15.574Z,6.20
2023-02-23T10:58:58.497Z,6.00
2023-02-23T11:02:00.789Z,5.80
2023-02-23T11:04:35.879Z,5.70
2023-02-23T11:07:22.336Z,5.30
2023-02-23T11:09:54.671Z,4.10
2023-02-23T11:12:45.633Z,4.30
2023-02-23T11:15:48.049Z,3.80
2023-02-23T11:18:24.429Z,4.10
2023-02-23T11:20:56.686Z,4.20
2023-02-23T11:23:58.539Z,4.50
2023-02-23T11:26:34.384Z,4.60
2023-02-23T11:29:26.224Z,4.70
2023-02-23T11:31:59.660Z,5.10
2023-02-23T11:34:41.332Z,4.20
2023-02-23T11:37:24.342Z,4.70
2023-02-23T11:39:58.099Z,4.50
2023-02-23T11:42:33.869Z,4.90
2023-02-23T11:45:17.217Z,4.40
2023-02-23T11:47:54.016Z,5.30
2023-02-23T11:50:34.147Z,5.00
2023-02-23T11:53:19.773Z,5.00
2023-02-23T11:55:59.005Z,5.10
2023-02-23T11:58:51.725Z,4.70
2023-02-23T12:01:53.307Z,5.30
2023-02-23T12:04:38.061Z,5.00
2023-02-23T12:07:40.690Z,4.10
2023-02-23T12:13:27.433Z,5.00
2023-02-23T12:16:10.862Z,4.90
2023-02-23T12:18:53.028Z,5.60
2023-02-23T12:21:57.166Z,4.90
2023-02-23T12:24:35.005Z,4.80
2023-02-23T12:27:32.900Z,5.40
2023-02-23T12:30:42.662Z,5.10
2023-02-23T12:33:30.678Z,5.00
2023-02-23T12:36:04.719Z,5.30
2023-02-23T12:38:51.995Z,5.40
2023-02-23T12:41:50.426Z,5.50
2023-02-23T12:44:51.522Z,5.40
2023-02-23T12:47:37.311Z,5.20
2023-02-23T12:50:33.250Z,5.70
2023-02-23T12:53:34.397Z,5.10
2023-02-23T12:56:24.737Z,6.20
2023-02-23T12:59:26.192Z,5.40
2023-02-23T13:02:20.015Z,6.20
2023-02-23T13:05:15.997Z,5.50
2023-02-23T13:08:27.318Z,5.60
2023-02-23T13:11:33.676Z,5.20
2023-02-23T13:14:30.872Z,4.90
2023-02-23T13:17:11.796Z,5.40
2023-02-23T13:19:59.203Z,5.80
2023-02-23T13:23:11.363Z,7.00
2023-02-23T13:25:51.097Z,6.60
2023-02-23T13:28:44.497Z,5.80
2023-02-23T13:31:36.785Z,5.50
2023-02-23T13:34:26.277Z,5.40
2023-02-23T13:36:57.851Z,5.50
2023-02-23T13:39:48.253Z,5.30
2023-02-23T13:42:49.415Z,5.70
2023-02-23T13:45:52.804Z,6.00
2023-02-23T13:49:05.495Z,5.70
2023-02-23T13:51:49.931Z,5.90
2023-02-23T13:54:34.953Z,6.10
2023-02-23T13:57:17.324Z,5.80
2023-02-23T13:59:47.972Z,5.40
2023-02-23T14:02:41.412Z,5.60
2023-02-23T14:05:19.140Z,6.00
2023-02-23T14:07:54.390Z,6.30
2023-02-23T14:10:46.593Z,6.40
2023-02-23T14:13:17.511Z,6.30
2023-02-23T14:16:10.047Z,5.80
2023-02-23T14:19:10.916Z,7.60
2023-02-23T14:21:53.063Z,6.70
2023-02-23T14:24:25.573Z,6.20
2023-02-23T14:27:10.015Z,6.70
2023-02-23T14:29:45.970Z,6.10
2023-02-23T14:32:16.454Z,6.20
2023-02-23T14:34:52.444Z,6.10
2023-02-23T14:37:26.913Z,5.90
2023-02-23T14:40:09.423Z,6.90
2023-02-23T14:42:40.655Z,5.80
2023-02-23T14:45:20.880Z,7.30
2023-02-23T14:47:55.732Z,7.50
2023-02-23T14:50:34.028Z,7.00
2023-02-23T14:53:09.167Z,7.30
2023-02-23T14:55:43.852Z,6.60
2023-02-23T14:58:40.329Z,7.60
2023-02-23T15:01:10.062Z,7.10
2023-02-23T15:03:39.475Z,7.30
2023-02-23T15:06:12.237Z,7.00
2023-02-23T15:08:46.235Z,8.00
2023-02-23T15:11:23.049Z,8.20
2023-02-23T15:13:54.521Z,8.10
2023-02-23T15:16:35.927Z,8.70
2023-02-23T15:19:07.988Z,6.80
2023-02-23T15:21:40.236Z,7.70
2023-02-23T15:24:21.984Z,7.90
2023-02-23T15:26:53.073Z,8.90
2023-02-23T15:29:27.199Z,8.60
2023-02-23T15:32:15.332Z,9.30
2023-02-23T15:34:44.905Z,8.50
2023-02-23T15:37:25.522Z,9.40
2023-02-23T15:40:04.316Z,9.80
2023-02-23T15:42:45.368Z,10.00
2023-02-23T15:45:43.342Z,10.00
2023-02-23T15:48:18.980Z,8.80
2023-02-23T15:50:53.627Z,9.20
2023-02-23T15:53:42.015Z,8.40
2023-02-23T15:56:20.896Z,9.50
2023-02-23T15:58:57.289Z,8.90
2023-02-23T16:01:30.868Z,8.20
2023-02-23T16:04:09.647Z,9.80
2023-02-23T16:06:51.473Z,9.60
2023-02-23T16:09:26.754Z,8.40
2023-02-23T16:12:09.831Z,9.70
2023-02-23T16:14:50.360Z,9.20
2023-02-23T16:17:27.268Z,9.60
2023-02-23T16:20:24.772Z,9.00
2023-02-23T16:22:55.538Z,10.10
2023-02-23T16:25:29.035Z,11.00
2023-02-23T16:28:10.352Z,9.90
2023-02-23T16:30:43.884Z,11.30
2023-02-23T16:33:26.927Z,10.70
2023-02-23T16:36:11.437Z,12.30
2023-02-23T16:38:49.825Z,10.90
2023-02-23T16:41:23.197Z,11.20
2023-02-23T16:43:55.907Z,10.20
2023-02-23T16:46:56.651Z,11.60
2023-02-23T16:49:25.945Z,11.70
2023-02-23T16:52:00.660Z,9.70
2023-02-23T16:54:29.937Z,9.60
2023-02-23T16:56:59.768Z,10.90
2023-02-23T16:59:36.682Z,9.90
2023-02-23T17:02:10.627Z,10.00
2023-02-23T17:04:40.002Z,9.90
2023-02-23T17:07:09.233Z,9.90
2023-02-23T17:09:44.195Z,10.50
2023-02-23T17:12:23.063Z,10.00
2023-02-23T17:14:55.360Z,10.70
2023-02-23T17:17:24.893Z,16.70
2023-02-23T17:19:54.152Z,17.50
2023-02-23T17:22:23.827Z,18.10
2023-02-23T17:24:53.912Z,16.90
2023-02-23T17:27:23.194Z,18.50
2023-02-23T17:30:01.045Z,18.00
2023-02-23T17:32:48.851Z,17.60
2023-02-23T17:35:35.696Z,16.90
2023-02-23T17:38:13.245Z,14.70
2023-02-23T17:40:42.474Z,17.00
2023-02-23T17:43:12.104Z,14.40
2023-02-23T17:45:50.162Z,18.40
2023-02-23T17:48:29.206Z,17.40
2023-02-23T17:51:09.508Z,18.10
2023-02-23T17:53:56.651Z,16.30
2023-02-23T17:56:27.107Z,16.90
2023-02-23T17:58:59.340Z,19.00
2023-02-23T18:01:28.729Z,17.90
2023-02-23T18:04:07.316Z,18.80
2023-02-23T18:06:36.420Z,18.10
2023-02-23T18:09:17.472Z,17.30
2023-02-23T18:12:04.140Z,17.70
2023-02-23T18:14:51.440Z,16.70
2023-02-23T18:17:21.042Z,18.20
2023-02-23T18:19:53.396Z,17.20
2023-02-23T18:22:28.213Z,18.30
2023-02-23T18:25:00.566Z,17.90
2023-02-23T18:27:30.637Z,16.40
2023-02-23T18:30:00.311Z,16.40
2023-02-23T18:32:31.577Z,16.20
2023-02-23T18:35:20.393Z,15.60
2023-02-23T18:37:50.224Z,15.80
2023-02-23T18:40:48.072Z,15.60
2023-02-23T18:43:26.369Z,16.70
2023-02-23T18:46:16.818Z,17.90
2023-02-23T18:49:12.884Z,15.20
2023-02-23T18:51:43.369Z,18.20
2023-02-23T18:54:34.395Z,18.60
2023-02-23T18:57:16.858Z,20.00
2023-02-23T18:59:53.098Z,20.40
2023-02-23T19:02:31.543Z,18.70
2023-02-23T19:05:33.485Z,18.80
2023-02-23T19:08:21.220Z,19.60
2023-02-23T19:11:01.513Z,20.10
2023-02-23T19:13:43.932Z,18.60
2023-02-23T19:16:38.618Z,18.70
2023-02-23T19:19:13.926Z,16.10
2023-02-23T19:21:52.052Z,16.50
2023-02-23T19:24:37.031Z,17.50
2023-02-23T19:27:11.501Z,20.20
2023-02-23T19:29:44.576Z,18.10
2023-02-23T19:32:24.001Z,20.20
2023-02-23T19:34:59.051Z,20.10
2023-02-23T19:37:30.249Z,21.00
2023-02-23T19:40:01.290Z,22.50
2023-02-23T19:42:41.121Z,19.70
2023-02-23T19:45:19.282Z,21.80
2023-02-23T19:47:56.981Z,20.10
2023-02-23T19:50:41.633Z,21.30
2023-02-23T19:53:19.453Z,22.10
2023-02-23T19:56:12.981Z,21.50
2023-02-23T19:59:00.505Z,21.80
2023-02-23T20:01:44.170Z,23.10
2023-02-23T20:04:30.344Z,22.70
2023-02-23T20:07:19.621Z,24.00
2023-02-23T20:12:46.882Z,21.00
2023-02-23T20:15:20.370Z,20.90
2023-02-23T20:20:23.445Z,23.10
2023-02-23T20:22:59.303Z,22.30
2023-02-23T20:25:43.812Z,21.40
2023-02-23T20:28:18.280Z,24.30
2023-02-23T20:30:49.312Z,22.20
2023-02-23T20:33:20.335Z,24.30
2023-02-23T20:35:52.430Z,23.10
2023-02-23T20:38:29.481Z,19.20
2023-02-23T20:41:04.282Z,21.70
2023-02-23T20:43:45.766Z,21.60
2023-02-23T20:46:22.675Z,19.30
2023-02-23T20:48:59.052Z,20.70
2023-02-23T20:51:31.302Z,19.70
2023-02-23T20:54:04.265Z,19.70
2023-02-23T20:56:39.051Z,18.30
2023-02-23T20:59:19.814Z,17.60
2023-02-23T21:01:52.523Z,20.10
2023-02-23T21:04:22.067Z,19.90
2023-02-23T21:06:52.518Z,18.30
2023-02-23T21:09:37.993Z,19.60
2023-02-23T21:12:17.003Z,18.50
2023-02-23T21:14:50.514Z,20.00
2023-02-23T21:17:21.200Z,20.40
2023-02-23T21:19:57.855Z,20.20
2023-02-23T21:22:29.540Z,22.20
2023-02-23T21:25:01.055Z,21.90
2023-02-23T21:27:33.204Z,21.00
2023-02-23T21:30:10.997Z,18.70
2023-02-23T21:32:44.315Z,21.20
2023-02-23T21:35:16.118Z,21.00
2023-02-23T21:37:47.533Z,22.20
2023-02-23T21:40:21.460Z,20.20
2023-02-23T21:42:52.728Z,21.10
2023-02-23T21:45:22.186Z,19.90
2023-02-23T21:47:53.198Z,20.30
2023-02-23T21:50:23.216Z,19.80
2023-02-23T21:52:56.411Z,19.50
2023-02-23T21:55:27.588Z,22.10
2023-02-23T21:57:58.941Z,22.10
2023-02-23T22:00:31.495Z,22.10
2023-02-23T22:03:02.197Z,21.00
2023-02-23T22:05:35.514Z,21.00
2023-02-23T22:10:35.117Z,19.70
2023-02-23T22:13:05.391Z,19.60
2023-02-23T22:15:37.206Z,19.60
2023-02-23T22:18:06.416Z,19.60
2023-02-23T22:20:36.273Z,19.60
2023-02-23T22:23:07.126Z,18.90
2023-02-23T22:25:36.350Z,18.30
2023-02-23T22:28:09.484Z,19.60
2023-02-23T22:33:15.247Z,16.50
2023-02-23T22:35:47.546Z,19.60
2023-02-23T22:38:19.633Z,18.10
2023-02-23T22:40:48.801Z,18.10
2023-02-23T22:43:22.451Z,19.90
2023-02-23T22:45:57.407Z,19.40
2023-02-23T22:48:28.956Z,18.70
2023-02-23T22:51:00.424Z,18.40
2023-02-23T22:53:31.595Z,21.90
2023-02-23T22:56:04.676Z,19.60
2023-02-23T22:58:36.582Z,21.10
2023-02-23T23:01:06.897Z,20.20
2023-02-23T23:03:40.515Z,20.10
2023-02-23T23:06:14.004Z,21.50
2023-02-23T23:08:46.117Z,21.20
2023-02-23T23:11:36.769Z,20.20
2023-02-23T23:14:11.464Z,20.00
2023-02-23T23:16:48.694Z,21.00
2023-02-23T23:19:26.379Z,20.40
2023-02-23T23:21:56.144Z,20.00
2023-02-23T23:24:26.180Z,21.10
2023-02-23T23:27:09.685Z,20.50
2023-02-23T23:29:41.156Z,19.60
2023-02-23T23:32:40.471Z,17.80
2023-02-23T23:35:16.067Z,19.10
2023-02-23T23:37:46.508Z,20.60
2023-02-23T23:40:16.510Z,22.70
2023-02-23T23:42:48.432Z,23.30
2023-02-23T23:45:24.619Z,21.80
2023-02-23T23:47:55.205Z,22.00
2023-02-23T23:50:27.570Z,20.80
2023-02-23T23:52:57.361Z,19.30
2023-02-23T23:55:31.707Z,20.40
2023-02-23T23:58:00.846Z,19.80
